createdAt,value
2022-10-02T00:07:12.374Z,74374.56
2022-10-02T00:17:28.511Z,74378.59
2022-10-02T00:27:41.907Z,74390.75
2022-10-02T00:38:25.147Z,74408.94
2022-10-02T00:48:51.639Z,74410.97
2022-10-02T00:59:10.953Z,74417.03
2022-10-02T01:09:13.453Z,74415.03
2022-10-02T01:19:35.607Z,74417.03
2022-10-02T01:29:39.944Z,74402.88
2022-10-02T01:39:42.094Z,74404.91
2022-10-02T01:50:33.925Z,74396.81
2022-10-02T02:00:57.884Z,74415.03
2022-10-02T02:11:16.406Z,74431.22
2022-10-02T02:21:39.625Z,74433.22
2022-10-02T02:31:49.808Z,74431.22
2022-10-02T02:42:04.344Z,74431.22
2022-10-02T02:52:08.676Z,74435.25
2022-10-02T03:02:11.786Z,74439.31
2022-10-02T03:12:41.281Z,74441.31
2022-10-02T03:23:12.605Z,74451.44
2022-10-02T03:33:17.526Z,74451.44
2022-10-02T03:43:23.306Z,74451.44
2022-10-02T03:53:30.888Z,74445.38
2022-10-02T04:03:39.150Z,74435.25
2022-10-02T04:13:50.834Z,74435.25
2022-10-02T04:23:57.096Z,74431.22
2022-10-02T04:34:07.218Z,74449.41
2022-10-02T04:44:16.922Z,74463.56
2022-10-02T04:54:28.720Z,74465.59
2022-10-02T05:04:58.081Z,74473.69
2022-10-02T05:15:22.964Z,74483.81
2022-10-02T05:25:50.175Z,74471.66
2022-10-02T05:36:10.593Z,74479.75
2022-10-02T05:46:24.343Z,74471.66
2022-10-02T05:56:33.958Z,74479.75
2022-10-02T06:06:42.107Z,74469.66
2022-10-02T06:17:05.844Z,74481.78
2022-10-02T06:27:15.474Z,74471.66
2022-10-02T06:37:39.895Z,74479.75
2022-10-02T06:48:05.778Z,74467.63
2022-10-02T06:58:16.735Z,74447.38
2022-10-02T07:08:27.947Z,74455.47
2022-10-02T07:18:42.990Z,74461.56
2022-10-02T07:29:09.039Z,74465.59
2022-10-02T07:39:20.217Z,74451.44
2022-10-02T07:49:45.165Z,74431.22
2022-10-02T07:59:53.424Z,74406.94
2022-10-02T08:09:58.340Z,74415.03
2022-10-02T08:20:09.937Z,74419.06
2022-10-02T08:30:18.559Z,74425.13
2022-10-02T08:40:32.243Z,74398.84
2022-10-02T08:51:05.392Z,74382.66
2022-10-02T09:01:35.239Z,74319.94
2022-10-02T09:11:45.183Z,74269.34
2022-10-02T09:21:56.461Z,74216.75
2022-10-02T09:32:44.716Z,74232.94
2022-10-02T09:43:13.913Z,74218.78
2022-10-02T09:53:49.365Z,74164.16
2022-10-02T10:04:01.219Z,74091.34
2022-10-02T10:14:26.332Z,74069.09
2022-10-02T10:24:55.352Z,74101.44
2022-10-02T10:35:03.389Z,74095.38
2022-10-02T10:45:23.555Z,74058.97
2022-10-02T10:55:51.567Z,74022.56
2022-10-02T11:06:07.006Z,74176.31
2022-10-02T11:16:31.813Z,74283.53
2022-10-02T11:27:19.924Z,74249.13
2022-10-02T11:37:46.296Z,74198.56
2022-10-02T11:48:28.388Z,74162.13
2022-10-02T11:59:01.422Z,74131.78
2022-10-02T12:09:24.063Z,74123.69
2022-10-02T12:20:29.511Z,74198.56
2022-10-02T12:30:40.914Z,74265.31
2022-10-02T12:40:56.675Z,74271.38
2022-10-02T12:51:44.443Z,74263.28
2022-10-02T13:02:09.174Z,74237.00
2022-10-02T13:12:39.632Z,74198.56
2022-10-02T13:23:14.703Z,74133.81
2022-10-02T13:33:53.025Z,74131.78
2022-10-02T13:44:16.144Z,74121.69
2022-10-02T13:55:13.604Z,74117.63
2022-10-02T14:06:03.170Z,74107.53
2022-10-02T14:16:29.746Z,74077.16
2022-10-02T14:26:55.028Z,74081.22
2022-10-02T14:37:34.397Z,74067.06
2022-10-02T14:48:01.739Z,74087.28
2022-10-02T14:58:39.393Z,74107.53
2022-10-02T15:09:01.006Z,74139.88
2022-10-02T15:19:13.055Z,74152.03
2022-10-02T15:29:41.352Z,74170.22
2022-10-02T15:40:10.054Z,74200.56
2022-10-02T15:50:40.959Z,74224.84
2022-10-02T16:01:05.883Z,74261.25
2022-10-02T16:11:20.700Z,74301.72
2022-10-02T16:21:39.290Z,74317.91
2022-10-02T16:31:55.760Z,74338.16
2022-10-02T16:42:25.110Z,74346.22
2022-10-02T16:52:53.533Z,74346.22
2022-10-02T17:03:15.545Z,74352.31
2022-10-02T17:13:43.184Z,74364.44
2022-10-02T17:24:12.335Z,74358.38
2022-10-02T17:34:18.037Z,74346.22
2022-10-02T17:44:38.363Z,74348.25
2022-10-02T17:55:08.097Z,74356.34
2022-10-02T18:05:33.529Z,74368.50
2022-10-02T18:16:16.203Z,74372.53
2022-10-02T18:26:24.865Z,74370.50
2022-10-02T18:36:52.020Z,74370.50
2022-10-02T18:47:02.882Z,74382.66
2022-10-02T18:57:07.936Z,74398.84
2022-10-02T19:07:16.860Z,74394.78
2022-10-02T19:17:26.181Z,74378.59
2022-10-02T19:27:33.111Z,74382.66
2022-10-02T19:38:06.621Z,74390.75
2022-10-02T19:48:10.668Z,74415.03
2022-10-02T19:58:36.047Z,74463.56
2022-10-02T20:08:43.941Z,74540.47
2022-10-02T20:18:56.095Z,74568.78
2022-10-02T20:29:05.214Z,74597.09
2022-10-02T20:39:14.590Z,74617.34
2022-10-02T20:49:41.502Z,74611.28
2022-10-02T20:59:48.300Z,74607.22
2022-10-02T21:10:31.293Z,74605.19
2022-10-02T21:21:13.281Z,74570.81
2022-10-02T21:31:33.598Z,74550.56
2022-10-02T21:42:07.541Z,74560.69
2022-10-02T21:52:31.890Z,74576.88
2022-10-02T22:03:07.676Z,74580.94
2022-10-02T22:13:25.614Z,74611.28
2022-10-02T22:23:49.443Z,74615.31
2022-10-02T22:34:08.652Z,74625.44
2022-10-02T22:44:24.417Z,74637.56
2022-10-02T22:54:47.335Z,74637.56
2022-10-02T23:04:54.051Z,74631.50
2022-10-02T23:15:05.713Z,74641.63
2022-10-02T23:25:22.981Z,74641.63
2022-10-02T23:35:36.496Z,74653.75
2022-10-02T23:45:53.850Z,74657.81
2022-10-02T23:56:04.013Z,74657.81
